^^
Station Historical Data
 
Daily Summary for May 27, 2017 Units:  Metric    English   Both
« Previous Day
Next Day »
Daily Weekly Monthly Yearly Custom
  Current: High: Low: Average:
Temperature: 21.4 °C 21.4 °C 12.2 °C 18.3 °C
Dew Point: 13.1 °C 14.4 °C 11.8 °C 13.2 °C
Humidity: 59 % 100 % 59 % 74 %
Wind Speed: 0 km/h 1.6 km/h 0 km/h 0.2 km/h
Wind Gust: 3.2 km/h 11.3 km/h - -
Wind:Calm - - ESE
Pressure: 1010.4 hPa 1011.1 hPa 1010 hPa -
Precipitation: 0.25 mm      
Historical Graphs
 
 
Tabular Data for May 27, 2017
Time Temperature Dew Point Pressure Wind Wind Speed Wind Gust Humidity Rainfall Rate (Hourly) solar Conditions
08:05 12.2 °C 12.2 °C 1010.7 hPa Calm   4.8 km/h 100 % 0 mm WeatherDisplay:10.37 W/m2 OVC
08:15 12.6 °C 12.6 °C 1011.1 hPa Calm     100 % 0 mm WeatherDisplay:10.37 W/m2 BKN
08:20 12.9 °C 12.9 °C 1011.1 hPa Calm     100 % 0 mm WeatherDisplay:10.37 W/m2 BKN
08:25 13 °C 13.1 °C 1011.1 hPa Calm     100 % 0 mm WeatherDisplay:10.37 W/m2 BKN
08:35 13.4 °C 13.4 °C 1011.1 hPa Calm     100 % 0 mm WeatherDisplay:10.37 W/m2 BKN
08:40 13.6 °C 13.6 °C 1010.7 hPa Calm     100 % 0 mm WeatherDisplay:10.37 W/m2 BKN
08:45 13.7 °C 13.1 °C 1011.1 hPa Calm     96 % 0 mm WeatherDisplay:10.37 W/m2 BKN
08:55 14.1 °C 13.2 °C 1011.1 hPa Calm     94 % 0 mm WeatherDisplay:10.37 W/m2 BKN
09:00 14.3 °C 13.2 °C 1010.7 hPa Calm     93 % 0 mm WeatherDisplay:10.37 W/m2 BKN
09:05 14.5 °C 13.2 °C 1010.7 hPa Calm   1.6 km/h 92 % 0 mm WeatherDisplay:10.37 W/m2 BKN
09:10 14.7 °C 13.3 °C 1010.7 hPa Calm     91 % 0 mm WeatherDisplay:10.37 W/m2 BKN
09:15 15 °C 13.2 °C 1010.7 hPa Calm   1.6 km/h 89 % 0 mm WeatherDisplay:10.37 W/m2 SCT
09:20 15.4 °C 13.2 °C 1010.7 hPa Calm     87 % 0 mm WeatherDisplay:10.37 W/m2 SCT
09:25 15.7 °C 13.2 °C 1010.7 hPa NNW 1.6 km/h 4.8 km/h 85 % 0 mm WeatherDisplay:10.37 W/m2 SCT
09:30 16.1 °C 13.2 °C 1010.4 hPa NE 1.6 km/h 6.4 km/h 83 % 0 mm WeatherDisplay:10.37 W/m2 SCT
09:35 16.4 °C 13.3 °C 1010.4 hPa Calm   1.6 km/h 82 % 0 mm WeatherDisplay:10.37 W/m2 SCT
09:40 16.7 °C 13.2 °C 1010.4 hPa Calm   4.8 km/h 80 % 0 mm WeatherDisplay:10.37 W/m2 SCT
09:45 16.9 °C 13.2 °C 1010.4 hPa Calm     79 % 0 mm WeatherDisplay:10.37 W/m2 SCT
09:50 17.2 °C 13.3 °C 1010.4 hPa NE 1.6 km/h 8 km/h 78 % 0 mm WeatherDisplay:10.37 W/m2 SCT
09:55 17.3 °C 13.1 °C 1010.4 hPa Calm   11.3 km/h 76 % 0 mm WeatherDisplay:10.37 W/m2 SCT
10:00 17.5 °C 13 °C 1010.4 hPa Calm   4.8 km/h 75 % 0 mm WeatherDisplay:10.37 W/m2 SCT
10:05 17.7 °C 13.6 °C 1010.4 hPa Calm   1.6 km/h 77 % 0 mm WeatherDisplay:10.37 W/m2 SCT
10:10 17.8 °C 13.5 °C 1010.4 hPa Calm   1.6 km/h 76 % 0 mm WeatherDisplay:10.37 W/m2 SCT
10:15 17.9 °C 13.4 °C 1010.4 hPa Calm   4.8 km/h 75 % 0 mm WeatherDisplay:10.37 W/m2 BKN
10:20 18 °C 13.5 °C 1010.4 hPa Calm     75 % 0 mm WeatherDisplay:10.37 W/m2 BKN
10:25 18.2 °C 13.7 °C 1010.4 hPa Calm   1.6 km/h 75 % 0 mm WeatherDisplay:10.37 W/m2 BKN
10:30 18.3 °C 13.1 °C 1010.4 hPa Calm   1.6 km/h 72 % 0 mm WeatherDisplay:10.37 W/m2 BKN
10:40 18.5 °C 13.1 °C 1010.4 hPa Calm     71 % 0 mm WeatherDisplay:10.37 W/m2 BKN
10:45 18.6 °C 12.6 °C 1010.4 hPa Calm     68 % 0 mm WeatherDisplay:10.37 W/m2 BKN
10:50 18.7 °C 12.7 °C 1010.4 hPa Calm     68 % 0.25 mm WeatherDisplay:10.37 W/m2 RA
10:55 18.9 °C 12.7 °C 1010.4 hPa Calm   3.2 km/h 67 % 0 mm WeatherDisplay:10.37 W/m2 RA
11:05 19.6 °C 12.3 °C 1010.4 hPa ENE 1.6 km/h 6.4 km/h 63 % 0 mm WeatherDisplay:10.37 W/m2 BKN
11:10 19.8 °C 11.8 °C 1010.4 hPa Calm   6.4 km/h 60 % 0 mm WeatherDisplay:10.37 W/m2 BKN
11:15 20.1 °C 12.1 °C 1010.4 hPa Calm   3.2 km/h 60 % 0 mm WeatherDisplay:10.37 W/m2 BKN
11:20 20.2 °C 12.2 °C 1010.4 hPa Calm     60 % 0 mm WeatherDisplay:10.37 W/m2 BKN
11:25 20.4 °C 12.3 °C 1010.4 hPa Calm   1.6 km/h 60 % 0 mm WeatherDisplay:10.37 W/m2 BKN
11:30 20.4 °C 13.2 °C 1010.7 hPa Calm   3.2 km/h 63 % 0 mm WeatherDisplay:10.37 W/m2 BKN
11:35 20.4 °C 12.9 °C 1010.4 hPa Calm   3.2 km/h 62 % 0 mm WeatherDisplay:10.37 W/m2 BKN
11:40 20.3 °C 13.3 °C 1010.4 hPa Calm   4.8 km/h 64 % 0 mm WeatherDisplay:10.37 W/m2 BKN
11:45 20.3 °C 13.2 °C 1010.4 hPa Calm   3.2 km/h 64 % 0 mm WeatherDisplay:10.37 W/m2 BKN
11:50 20.3 °C 13.2 °C 1010.4 hPa Calm   1.6 km/h 64 % 0 mm WeatherDisplay:10.37 W/m2 BKN
11:55 20.5 °C 13.2 °C 1010.4 hPa Calm   3.2 km/h 63 % 0 mm WeatherDisplay:10.37 W/m2 BKN
12:00 20.7 °C 13.4 °C 1010.4 hPa Calm   4.8 km/h 63 % 0 mm WeatherDisplay:10.37 W/m2 BKN
12:05 20.8 °C 12.7 °C 1010.4 hPa Calm   4.8 km/h 60 % 0 mm WeatherDisplay:10.37 W/m2 BKN
12:10 20.9 °C 13.1 °C 1010.4 hPa Calm   1.6 km/h 61 % 0 mm WeatherDisplay:10.37 W/m2 BKN
12:15 20.9 °C 13.4 °C 1010.4 hPa Calm   3.2 km/h 62 % 0 mm WeatherDisplay:10.37 W/m2 BKN
12:20 20.9 °C 13.1 °C 1010.4 hPa Calm   1.6 km/h 61 % 0 mm WeatherDisplay:10.37 W/m2 BKN
12:25 21 °C 13.2 °C 1010.4 hPa Calm   3.2 km/h 61 % 0 mm WeatherDisplay:10.37 W/m2 BKN
12:30 21.1 °C 13.8 °C 1010.4 hPa Calm   3.2 km/h 63 % 0 mm WeatherDisplay:10.37 W/m2 BKN
12:35 21.2 °C 13.8 °C 1010.4 hPa Calm   1.6 km/h 63 % 0 mm WeatherDisplay:10.37 W/m2 BKN
12:40 21.1 °C 14.3 °C 1010.4 hPa Calm   3.2 km/h 65 % 0 mm WeatherDisplay:10.37 W/m2 BKN
12:45 21 °C 14.4 °C 1010.4 hPa Calm   1.6 km/h 66 % 0 mm WeatherDisplay:10.37 W/m2 BKN
12:50 20.9 °C 14.1 °C 1010.4 hPa Calm     65 % 0 mm WeatherDisplay:10.37 W/m2 BKN
12:55 20.7 °C 13.4 °C 1010.4 hPa Calm   1.6 km/h 63 % 0 mm WeatherDisplay:10.37 W/m2 BKN
13:00 20.7 °C 13.9 °C 1010.4 hPa Calm     65 % 0 mm WeatherDisplay:10.37 W/m2 BKN
13:05 20.8 °C 14 °C 1010.4 hPa Calm     65 % 0 mm WeatherDisplay:10.37 W/m2 BKN
13:10 20.9 °C 13.3 °C 1010 hPa Calm   1.6 km/h 62 % 0 mm WeatherDisplay:10.37 W/m2 BKN
13:15 21.1 °C 13.2 °C 1010 hPa Calm   3.2 km/h 61 % 0 mm WeatherDisplay:10.37 W/m2 BKN
13:20 21.2 °C 13.9 °C 1010 hPa Calm   3.2 km/h 63 % 0 mm WeatherDisplay:10.37 W/m2 BKN
13:25 21.4 °C 13.1 °C 1010.4 hPa Calm   3.2 km/h 59 % 0 mm WeatherDisplay:10.37 W/m2 BKN
Juneau County Weather
Compliments of Weather Underground - 1.75 mb